Hlavní strana
METAR-TAF:

METAR-TAF

Letiště :

Chartúm, Súdán

zeměpisná šířka: 15-36N, zeměpisná délka: 032-33E, výška: 382 m

Aktuální stav počasí

Zpráva byla vytvořena před 33 minutami, v 18:30 UTC
Severní vítr 10 kt
Teplota 36°C
Vlhkost vzduchu 7%
Tlak 1009 hPa
Viditelnost 10 km a více
Žádná oblačnost pod 1500 m, nevyskytují se cumulonimby.

METAR: HSSS 231830Z 36010KT CAVOK 36/M05 Q1009 NOSIG

Čas: 22:03 (19:03 UTC)

Předpověď počasí

Zpráva byla vytvořena před 2 hodinami a 3 minutami, v 17:00 UTC
Předpověď platná od 23 v 18 UTC do 24 v 24 UTC
Severní vítr 15 kt s nárazy do 25 kt
Viditelnost: 6000 m

TAF: HSSS 231700Z 2318/2424 36015G25KT 6000

Stav a předpovědi počasí z více než 4 000 letišť (zprávy METAR a TAF).

Červené a žluté tečky na mapě představují dostupné meteorologické stanice.

Když kurzor umístíte na tečku, zobrazí se název stanice.

Pak kliknutím zobrazíte stav a předpověď počasí.

Chcete-li změnit mapu, kliknutím na zelené tlačítko se znaménkem +mapu přiblížíte, kliknutím na zelené tlačítko se znaménkem – mapu oddálíte a kliknutím na zelené šipky přejdete na sousední mapy.


METAR-TAF: